createdAt,value
2023-03-26T00:00:44.044Z,10.59
2023-03-26T00:01:43.822Z,10.58
2023-03-26T00:02:43.692Z,10.59
2023-03-26T00:03:40.871Z,10.59
2023-03-26T00:04:41.686Z,10.58
2023-03-26T00:05:40.418Z,10.59
2023-03-26T00:06:41.060Z,10.57
2023-03-26T00:07:40.269Z,10.58
2023-03-26T00:08:40.167Z,10.59
2023-03-26T00:09:43.108Z,10.60
2023-03-26T00:10:42.164Z,10.60
2023-03-26T00:11:40.120Z,10.60
2023-03-26T00:12:42.697Z,10.61
2023-03-26T00:13:42.155Z,10.61
2023-03-26T00:14:40.315Z,10.60
2023-03-26T00:15:42.156Z,10.58
2023-03-26T00:16:40.633Z,10.58
2023-03-26T00:17:41.268Z,10.57
2023-03-26T00:18:42.896Z,10.58
2023-03-26T00:19:40.609Z,10.58
2023-03-26T00:20:40.980Z,10.60
2023-03-26T00:21:40.005Z,10.61
2023-03-26T00:22:39.687Z,10.60
2023-03-26T00:23:42.302Z,10.60
2023-03-26T00:24:42.110Z,10.59
2023-03-26T00:25:40.017Z,10.60
2023-03-26T00:26:40.580Z,10.60
2023-03-26T00:27:41.654Z,10.61
2023-03-26T00:29:04.461Z,10.61
2023-03-26T00:29:42.755Z,10.60
2023-03-26T00:30:41.282Z,10.60
2023-03-26T00:31:40.408Z,10.60
2023-03-26T00:32:40.579Z,10.60
2023-03-26T00:33:41.534Z,10.60
2023-03-26T00:34:42.823Z,10.59
2023-03-26T00:35:42.230Z,10.59
2023-03-26T00:37:15.328Z,10.59
2023-03-26T00:37:48.978Z,10.58
2023-03-26T00:38:42.285Z,10.58
2023-03-26T00:39:42.228Z,10.57
2023-03-26T00:40:55.339Z,10.57
2023-03-26T00:41:41.406Z,10.55
2023-03-26T00:42:41.711Z,10.55
2023-03-26T00:43:41.646Z,10.54
2023-03-26T00:44:39.431Z,10.53
2023-03-26T00:45:41.061Z,10.54
2023-03-26T00:46:41.431Z,10.53
2023-03-26T00:47:41.054Z,10.53
2023-03-26T00:49:00.131Z,10.52
2023-03-26T00:49:38.756Z,10.52
2023-03-26T00:50:42.064Z,10.52
2023-03-26T00:51:42.556Z,10.50
2023-03-26T00:52:42.485Z,10.50
2023-03-26T00:53:42.242Z,10.51
2023-03-26T00:54:41.652Z,10.51
2023-03-26T00:55:42.544Z,10.49
2023-03-26T00:56:41.924Z,10.49
2023-03-26T00:57:51.761Z,10.48
2023-03-26T00:58:41.709Z,10.45
2023-03-26T00:59:41.643Z,10.43
2023-03-26T01:00:49.360Z,10.45
2023-03-26T01:01:41.072Z,10.44
2023-03-26T01:02:42.341Z,10.43
2023-03-26T01:03:53.074Z,10.40
2023-03-26T01:04:40.999Z,10.40
2023-03-26T01:05:41.256Z,10.40
2023-03-26T01:07:03.203Z,10.39
2023-03-26T01:07:41.384Z,10.41
2023-03-26T01:08:41.200Z,10.40
2023-03-26T01:09:40.791Z,10.39
2023-03-26T01:10:40.835Z,10.38
2023-03-26T01:11:41.009Z,10.40
2023-03-26T01:12:39.890Z,10.39
2023-03-26T01:13:40.799Z,10.38
2023-03-26T01:14:41.361Z,10.37
2023-03-26T01:15:42.318Z,10.35
2023-03-26T01:16:41.185Z,10.34
2023-03-26T01:17:42.840Z,10.35
2023-03-26T01:18:42.536Z,10.36
2023-03-26T01:19:41.357Z,10.36
2023-03-26T01:20:40.700Z,10.34
2023-03-26T01:21:40.191Z,10.35
2023-03-26T01:22:41.089Z,10.34
2023-03-26T01:23:41.626Z,10.34
2023-03-26T01:24:42.826Z,10.32
2023-03-26T01:25:41.773Z,10.29
2023-03-26T01:26:41.109Z,10.28
2023-03-26T01:27:41.915Z,10.30
2023-03-26T01:28:43.001Z,10.28
2023-03-26T01:29:43.932Z,10.25
2023-03-26T01:30:40.969Z,10.25
2023-03-26T01:31:40.805Z,10.25
2023-03-26T01:32:41.992Z,10.23
2023-03-26T01:33:41.427Z,10.23
2023-03-26T01:34:40.370Z,10.24
2023-03-26T01:35:39.516Z,10.22
2023-03-26T01:36:41.264Z,10.24
2023-03-26T01:37:43.165Z,10.23
2023-03-26T01:38:40.864Z,10.25
2023-03-26T01:39:42.131Z,10.24
2023-03-26T01:40:40.187Z,10.24
2023-03-26T01:41:41.641Z,10.25
2023-03-26T01:42:42.573Z,10.26
2023-03-26T01:43:42.441Z,10.25
2023-03-26T01:44:41.476Z,10.23
2023-03-26T01:45:43.131Z,10.25
2023-03-26T01:46:41.603Z,10.24
2023-03-26T01:47:41.886Z,10.25
2023-03-26T01:48:41.173Z,10.26
2023-03-26T01:49:41.784Z,10.23
2023-03-26T01:50:40.957Z,10.23
2023-03-26T01:51:43.374Z,10.24
2023-03-26T01:52:42.651Z,10.24
2023-03-26T01:53:41.456Z,10.23
2023-03-26T01:54:41.189Z,10.23
2023-03-26T01:55:41.446Z,10.25
2023-03-26T01:56:41.542Z,10.24
2023-03-26T01:57:41.468Z,10.25
2023-03-26T01:58:41.369Z,10.23
2023-03-26T01:59:41.683Z,10.25
2023-03-26T02:00:42.761Z,10.25
2023-03-26T02:01:42.895Z,10.24
2023-03-26T02:02:42.313Z,10.24
2023-03-26T02:03:45.259Z,10.24
2023-03-26T02:04:39.564Z,10.22
2023-03-26T02:05:42.010Z,10.22
2023-03-26T02:06:41.286Z,10.21
2023-03-26T02:07:40.075Z,10.21
2023-03-26T02:08:40.814Z,10.22
2023-03-26T02:09:41.620Z,10.22
2023-03-26T02:10:40.718Z,10.21
2023-03-26T02:11:51.534Z,10.23
2023-03-26T02:12:41.152Z,10.23
2023-03-26T02:13:41.925Z,10.22
2023-03-26T02:14:40.835Z,10.21
2023-03-26T02:15:41.625Z,10.19
2023-03-26T02:16:39.470Z,10.20
2023-03-26T02:17:40.664Z,10.21
2023-03-26T02:18:41.610Z,10.18
2023-03-26T02:19:41.109Z,10.19
2023-03-26T02:20:39.754Z,10.19
2023-03-26T02:21:41.112Z,10.19
2023-03-26T02:22:38.799Z,10.18
2023-03-26T02:23:41.831Z,10.17
2023-03-26T02:24:41.316Z,10.17
2023-03-26T02:25:41.876Z,10.13
2023-03-26T02:26:41.858Z,10.16
2023-03-26T02:27:41.799Z,10.16
2023-03-26T02:28:42.788Z,10.17
2023-03-26T02:29:42.051Z,10.17
2023-03-26T02:30:41.716Z,10.17
2023-03-26T02:31:41.097Z,10.13
2023-03-26T02:32:44.774Z,10.14
2023-03-26T02:33:40.502Z,10.15
2023-03-26T02:34:41.479Z,10.14
2023-03-26T02:35:41.956Z,10.13
2023-03-26T02:36:41.414Z,10.14
2023-03-26T02:37:42.341Z,10.16
2023-03-26T02:38:42.728Z,10.14
2023-03-26T02:39:42.625Z,10.14
2023-03-26T02:40:43.215Z,10.14
2023-03-26T02:41:41.355Z,10.12
2023-03-26T02:42:42.226Z,10.14
2023-03-26T02:43:40.935Z,10.14
2023-03-26T02:44:41.849Z,10.14
2023-03-26T02:45:42.471Z,10.14
2023-03-26T02:46:41.953Z,10.13
2023-03-26T02:47:41.259Z,10.11
2023-03-26T02:48:40.124Z,10.11
2023-03-26T02:49:40.541Z,10.13
2023-03-26T02:50:41.408Z,10.13
2023-03-26T02:51:39.890Z,10.14
2023-03-26T02:52:40.097Z,10.14
2023-03-26T02:53:40.293Z,10.12
2023-03-26T02:54:42.480Z,10.13
2023-03-26T02:55:43.526Z,10.10
2023-03-26T02:56:42.683Z,10.10
2023-03-26T02:57:41.344Z,10.09
2023-03-26T02:58:42.997Z,10.09
2023-03-26T02:59:42.612Z,10.10
2023-03-26T03:00:43.327Z,10.10
2023-03-26T03:01:42.291Z,10.10
2023-03-26T03:02:42.682Z,10.10
2023-03-26T03:03:41.488Z,10.10
2023-03-26T03:04:42.277Z,10.10
2023-03-26T03:05:39.940Z,10.10
2023-03-26T03:06:41.221Z,10.10
2023-03-26T03:07:41.167Z,10.10
2023-03-26T03:08:39.152Z,10.10
2023-03-26T03:09:40.377Z,10.10
2023-03-26T03:10:40.593Z,10.10
2023-03-26T03:11:41.210Z,10.10
2023-03-26T03:12:41.297Z,10.10
2023-03-26T03:13:39.986Z,10.10
2023-03-26T03:14:41.290Z,10.10
2023-03-26T03:15:40.009Z,10.10
2023-03-26T03:16:39.909Z,10.10
2023-03-26T03:17:41.242Z,10.10
2023-03-26T03:18:40.124Z,10.10
2023-03-26T03:19:42.968Z,10.10
2023-03-26T03:20:42.421Z,10.10
2023-03-26T03:21:42.103Z,10.10
2023-03-26T03:22:41.794Z,10.10
2023-03-26T03:23:42.059Z,10.10
2023-03-26T03:24:41.570Z,10.10
2023-03-26T03:25:41.634Z,10.10
2023-03-26T03:26:41.617Z,10.10
2023-03-26T03:27:41.382Z,10.10
2023-03-26T03:28:42.413Z,10.10
2023-03-26T03:29:42.214Z,10.10
2023-03-26T03:30:41.741Z,10.10
2023-03-26T03:31:42.307Z,10.10
2023-03-26T03:32:40.824Z,10.10
2023-03-26T03:33:41.191Z,10.10
2023-03-26T03:34:40.125Z,10.10
2023-03-26T03:35:40.577Z,10.10
2023-03-26T03:36:41.121Z,10.10
2023-03-26T03:37:39.303Z,10.10
2023-03-26T03:38:40.998Z,10.10
2023-03-26T03:39:40.073Z,10.10
2023-03-26T03:40:41.169Z,10.10
2023-03-26T03:41:40.360Z,10.10
2023-03-26T03:42:41.059Z,10.10
2023-03-26T03:43:39.557Z,10.10
2023-03-26T03:44:42.582Z,10.10
2023-03-26T03:45:40.432Z,10.10
2023-03-26T03:46:39.229Z,10.10
2023-03-26T03:47:40.167Z,10.10
2023-03-26T03:48:40.983Z,10.10
2023-03-26T03:49:41.067Z,10.10
2023-03-26T03:50:41.349Z,10.10
2023-03-26T03:51:41.080Z,10.10
2023-03-26T03:52:41.595Z,10.10
2023-03-26T03:53:40.453Z,10.10
2023-03-26T03:54:42.208Z,10.10
2023-03-26T03:55:40.916Z,10.10
2023-03-26T03:56:41.047Z,10.10
2023-03-26T03:57:41.832Z,10.10
2023-03-26T03:58:41.866Z,10.10
2023-03-26T03:59:47.788Z,10.09
2023-03-26T04:00:43.044Z,10.07
2023-03-26T04:01:39.748Z,10.08
2023-03-26T04:02:39.411Z,10.07
2023-03-26T04:03:50.249Z,10.05
2023-03-26T04:04:42.092Z,10.05
2023-03-26T04:05:39.537Z,10.05
2023-03-26T04:06:39.906Z,10.03
2023-03-26T04:07:42.842Z,10.03
2023-03-26T04:08:42.817Z,10.03
2023-03-26T04:09:44.288Z,10.02
2023-03-26T04:10:43.511Z,10.02
2023-03-26T04:11:42.708Z,10.04
2023-03-26T04:12:42.724Z,10.02
2023-03-26T04:13:43.060Z,10.01
2023-03-26T04:14:40.428Z,10.00
2023-03-26T04:15:39.882Z,9.989
2023-03-26T04:16:40.613Z,9.983
2023-03-26T04:17:41.793Z,9.978
2023-03-26T04:18:41.084Z,9.993
2023-03-26T04:19:42.361Z,9.996
2023-03-26T04:20:41.848Z,10.00
2023-03-26T04:21:41.262Z,9.986
2023-03-26T04:22:40.959Z,9.994
2023-03-26T04:23:40.290Z,9.984
2023-03-26T04:24:40.458Z,9.993
2023-03-26T04:25:42.007Z,9.976
2023-03-26T04:26:40.271Z,9.989
2023-03-26T04:27:41.061Z,9.981
2023-03-26T04:28:41.333Z,9.983
2023-03-26T04:29:42.483Z,9.954
2023-03-26T04:30:43.504Z,9.951
2023-03-26T04:31:41.437Z,9.979
2023-03-26T04:32:48.003Z,9.979
2023-03-26T04:33:39.299Z,9.965
2023-03-26T04:34:41.565Z,9.978
2023-03-26T04:35:40.408Z,9.984
2023-03-26T04:36:46.049Z,9.979
2023-03-26T04:37:40.258Z,9.960
2023-03-26T04:38:39.648Z,9.951
2023-03-26T04:39:40.314Z,9.939
2023-03-26T04:40:39.965Z,9.941
2023-03-26T04:41:41.878Z,9.961
2023-03-26T04:42:43.508Z,9.958
2023-03-26T04:43:40.444Z,9.963
2023-03-26T04:44:41.517Z,9.946
2023-03-26T04:45:41.925Z,9.935
2023-03-26T04:46:42.436Z,9.931
2023-03-26T04:47:42.313Z,9.941
2023-03-26T04:48:42.886Z,9.954
2023-03-26T04:49:43.370Z,9.918
2023-03-26T04:50:40.166Z,9.930
2023-03-26T04:51:39.978Z,9.949
2023-03-26T04:52:39.140Z,9.960
2023-03-26T04:53:41.171Z,9.941
2023-03-26T04:54:42.639Z,9.930
2023-03-26T04:55:41.300Z,9.933
2023-03-26T04:56:54.962Z,9.891
2023-03-26T04:57:40.251Z,9.878
2023-03-26T04:58:55.191Z,9.864
2023-03-26T04:59:43.754Z,9.853
2023-03-26T05:00:43.098Z,9.843
2023-03-26T05:01:41.997Z,9.843
2023-03-26T05:02:41.879Z,9.851
2023-03-26T05:03:43.339Z,9.848
2023-03-26T05:04:40.997Z,9.881
2023-03-26T05:05:42.662Z,9.859
2023-03-26T05:06:41.750Z,9.868
2023-03-26T05:07:41.475Z,9.835
2023-03-26T05:08:44.123Z,9.819
2023-03-26T05:09:42.925Z,9.824
2023-03-26T05:11:01.937Z,9.825
2023-03-26T05:11:39.991Z,9.814
2023-03-26T05:12:40.398Z,9.835
2023-03-26T05:13:39.968Z,9.826
2023-03-26T05:14:42.122Z,9.807
2023-03-26T05:15:42.177Z,9.819
2023-03-26T05:16:40.027Z,9.832
2023-03-26T05:17:39.862Z,9.821
2023-03-26T05:18:39.981Z,9.811
2023-03-26T05:19:39.638Z,9.819
2023-03-26T05:20:41.431Z,9.819
2023-03-26T05:21:41.508Z,9.815
2023-03-26T05:22:39.820Z,9.804
2023-03-26T05:23:41.054Z,9.777
2023-03-26T05:24:43.745Z,9.789
2023-03-26T05:25:42.073Z,9.789
2023-03-26T05:26:42.003Z,9.800
2023-03-26T05:27:42.944Z,9.778
2023-03-26T05:28:41.814Z,9.774
2023-03-26T05:29:42.450Z,9.779
2023-03-26T05:30:42.654Z,9.771
2023-03-26T05:31:41.767Z,9.763
2023-03-26T05:32:43.267Z,9.760
2023-03-26T05:33:42.418Z,9.768
2023-03-26T05:34:41.840Z,9.774
2023-03-26T05:35:43.926Z,9.779
2023-03-26T05:36:42.031Z,9.773
2023-03-26T05:37:42.765Z,9.751
2023-03-26T05:38:43.360Z,9.733
2023-03-26T05:39:44.010Z,9.725
2023-03-26T05:40:41.806Z,9.734
2023-03-26T05:41:41.956Z,9.718
2023-03-26T05:42:44.887Z,9.710
2023-03-26T05:43:45.362Z,9.713
2023-03-26T05:44:43.992Z,9.675
2023-03-26T05:45:41.583Z,9.685
2023-03-26T05:46:41.704Z,9.704
2023-03-26T05:47:42.509Z,9.689
2023-03-26T05:48:43.688Z,9.708
2023-03-26T05:49:42.394Z,9.708
2023-03-26T05:50:42.669Z,9.721
2023-03-26T05:51:41.543Z,9.720
2023-03-26T05:52:42.285Z,9.715
2023-03-26T05:53:41.908Z,9.708
2023-03-26T05:54:41.842Z,9.698
2023-03-26T05:55:44.279Z,9.689
2023-03-26T05:56:41.921Z,9.653
2023-03-26T05:57:42.995Z,9.653
2023-03-26T05:58:43.584Z,9.648
2023-03-26T05:59:44.110Z,9.643
2023-03-26T06:00:42.809Z,9.653
2023-03-26T06:01:41.452Z,9.651
2023-03-26T06:02:42.117Z,9.653
2023-03-26T06:03:42.737Z,9.676
2023-03-26T06:04:44.061Z,9.678
2023-03-26T06:05:43.987Z,9.648
2023-03-26T06:06:42.116Z,9.645
2023-03-26T06:07:41.977Z,9.649
2023-03-26T06:08:41.742Z,9.668
2023-03-26T06:09:43.010Z,9.671
2023-03-26T06:10:42.515Z,9.671
2023-03-26T06:11:41.069Z,9.648
2023-03-26T06:12:41.080Z,9.640
2023-03-26T06:13:41.125Z,9.649
2023-03-26T06:14:41.282Z,9.636
2023-03-26T06:15:42.676Z,9.654
2023-03-26T06:16:43.797Z,9.646
2023-03-26T06:17:43.689Z,9.609
2023-03-26T06:18:41.353Z,9.603
2023-03-26T06:19:41.614Z,9.563
2023-03-26T06:20:40.958Z,9.560
2023-03-26T06:21:41.051Z,9.574
2023-03-26T06:22:39.780Z,9.601
2023-03-26T06:23:41.732Z,9.579
2023-03-26T06:24:41.480Z,9.583
2023-03-26T06:25:41.708Z,9.595
2023-03-26T06:26:42.435Z,9.595
2023-03-26T06:27:41.484Z,9.619
2023-03-26T06:28:41.394Z,9.595
2023-03-26T06:29:41.627Z,9.585
2023-03-26T06:30:43.418Z,9.563
2023-03-26T06:31:41.802Z,9.574
2023-03-26T06:32:42.072Z,9.583
2023-03-26T06:33:42.960Z,9.588
2023-03-26T06:34:42.036Z,9.578
2023-03-26T06:35:41.118Z,9.611
2023-03-26T06:36:40.802Z,9.608
2023-03-26T06:37:40.591Z,9.618
2023-03-26T06:38:41.701Z,9.645
2023-03-26T06:39:42.751Z,9.638
2023-03-26T06:40:41.719Z,9.635
2023-03-26T06:41:42.554Z,9.658
2023-03-26T06:43:44.539Z,9.641
2023-03-26T06:43:52.552Z,9.631
2023-03-26T06:44:41.675Z,9.658
2023-03-26T06:45:42.248Z,9.668
2023-03-26T06:46:40.277Z,9.657
2023-03-26T06:47:41.155Z,9.652
2023-03-26T06:48:43.581Z,9.682
2023-03-26T06:49:45.516Z,9.685
2023-03-26T06:50:42.040Z,9.670
2023-03-26T06:52:42.089Z,9.712
2023-03-26T06:53:40.668Z,9.706
2023-03-26T06:54:41.434Z,9.704
2023-03-26T06:55:40.654Z,9.739
2023-03-26T06:56:41.224Z,9.731
2023-03-26T06:57:39.946Z,9.686
2023-03-26T06:58:42.682Z,9.685
2023-03-26T06:59:47.171Z,9.689
2023-03-26T07:00:44.740Z,9.687
2023-03-26T07:01:44.151Z,9.684
2023-03-26T07:02:42.330Z,9.666
2023-03-26T07:03:40.810Z,9.671
2023-03-26T07:04:43.737Z,9.668
2023-03-26T07:05:42.148Z,9.678
2023-03-26T07:06:43.028Z,9.675
2023-03-26T07:07:50.112Z,9.681
2023-03-26T07:08:42.658Z,9.691
2023-03-26T07:09:42.495Z,9.666
2023-03-26T07:10:41.160Z,9.648
2023-03-26T07:11:50.870Z,9.648
2023-03-26T07:12:41.944Z,9.651
2023-03-26T07:13:40.142Z,9.630
2023-03-26T07:14:40.214Z,9.653
2023-03-26T07:15:40.995Z,9.659
2023-03-26T07:16:43.801Z,9.649
2023-03-26T07:17:41.945Z,9.618
2023-03-26T07:18:41.809Z,9.618
2023-03-26T07:19:42.253Z,9.581
2023-03-26T07:20:39.995Z,9.578
2023-03-26T07:21:40.901Z,9.571
2023-03-26T07:22:42.175Z,9.566
2023-03-26T07:23:42.586Z,9.596
2023-03-26T07:24:41.817Z,9.569
2023-03-26T07:25:41.718Z,9.573
2023-03-26T07:26:42.310Z,9.613
2023-03-26T07:27:42.677Z,9.619
2023-03-26T07:28:42.658Z,9.583
2023-03-26T07:29:57.837Z,9.573
2023-03-26T07:30:43.454Z,9.600
2023-03-26T07:31:42.246Z,9.591
2023-03-26T07:32:41.373Z,9.560
2023-03-26T07:33:42.232Z,9.548
2023-03-26T07:34:41.973Z,9.568
2023-03-26T07:35:42.282Z,9.583
2023-03-26T07:36:42.684Z,9.609
2023-03-26T07:37:41.281Z,9.623
2023-03-26T07:38:41.074Z,9.576
2023-03-26T07:39:43.681Z,9.553
2023-03-26T07:40:43.245Z,9.583
2023-03-26T07:41:42.204Z,9.586
2023-03-26T07:42:41.783Z,9.591
2023-03-26T07:43:42.713Z,9.596
2023-03-26T07:44:42.213Z,9.601
2023-03-26T07:45:43.450Z,9.621
2023-03-26T07:46:43.480Z,9.619
2023-03-26T07:47:42.745Z,9.586
2023-03-26T07:48:41.628Z,9.578
2023-03-26T07:49:42.734Z,9.588
2023-03-26T07:50:42.994Z,9.581
2023-03-26T07:51:42.000Z,9.536
2023-03-26T07:52:43.192Z,9.569
2023-03-26T07:53:42.002Z,9.566
2023-03-26T07:54:42.512Z,9.568
2023-03-26T07:55:44.276Z,9.546
2023-03-26T07:56:44.543Z,9.578
2023-03-26T07:57:41.398Z,9.578
2023-03-26T07:58:44.100Z,9.573
2023-03-26T07:59:42.114Z,9.569
2023-03-26T08:00:43.548Z,9.551
2023-03-26T08:01:44.198Z,9.529
2023-03-26T08:02:42.933Z,9.538
2023-03-26T08:04:23.696Z,9.511
2023-03-26T08:04:50.729Z,9.503
2023-03-26T08:05:42.378Z,9.465
2023-03-26T08:06:42.224Z,9.5
2023-03-26T08:07:42.633Z,9.523
2023-03-26T08:08:42.272Z,9.539
2023-03-26T08:10:13.635Z,9.543
2023-03-26T08:10:47.166Z,9.574
2023-03-26T08:11:40.913Z,9.560
2023-03-26T08:12:43.203Z,9.539
2023-03-26T08:13:43.200Z,9.516
2023-03-26T08:14:41.584Z,9.484
2023-03-26T08:15:42.587Z,9.498
2023-03-26T08:16:42.800Z,9.513
2023-03-26T08:17:41.446Z,9.515
2023-03-26T08:18:42.006Z,9.511
2023-03-26T08:19:41.910Z,9.517
2023-03-26T08:20:42.270Z,9.521
2023-03-26T08:21:40.887Z,9.539
2023-03-26T08:22:41.593Z,9.538
2023-03-26T08:23:50.762Z,9.553
2023-03-26T08:24:41.053Z,9.528
2023-03-26T08:25:41.051Z,9.510
2023-03-26T08:26:42.221Z,9.465
2023-03-26T08:27:42.511Z,9.460
2023-03-26T08:28:42.135Z,9.456
2023-03-26T08:29:40.911Z,9.430
2023-03-26T08:30:41.293Z,9.417
2023-03-26T08:31:41.030Z,9.421
2023-03-26T08:32:41.681Z,9.446
2023-03-26T08:33:41.691Z,9.448
2023-03-26T08:34:41.193Z,9.466
2023-03-26T08:35:41.930Z,9.439
2023-03-26T08:36:40.296Z,9.463
2023-03-26T08:37:41.012Z,9.510
2023-03-26T08:38:40.422Z,9.476
2023-03-26T08:39:40.817Z,9.476
2023-03-26T08:40:42.954Z,9.451
2023-03-26T08:41:41.437Z,9.443
2023-03-26T08:42:40.472Z,9.460
2023-03-26T08:43:40.747Z,9.453
2023-03-26T08:44:40.734Z,9.456
2023-03-26T08:45:41.565Z,9.493
2023-03-26T08:46:42.579Z,9.520
2023-03-26T08:47:41.044Z,9.5
2023-03-26T08:48:39.638Z,9.506
2023-03-26T08:49:43.334Z,9.506
2023-03-26T08:50:39.862Z,9.489
2023-03-26T08:51:42.427Z,9.5
2023-03-26T08:52:40.069Z,9.483
2023-03-26T08:53:39.912Z,9.496
2023-03-26T08:54:40.953Z,9.463
2023-03-26T08:55:41.761Z,9.420
2023-03-26T08:56:43.429Z,9.453
2023-03-26T08:57:41.582Z,9.463
2023-03-26T08:58:43.202Z,9.515
2023-03-26T08:59:39.974Z,9.508
2023-03-26T09:00:43.906Z,9.524
2023-03-26T09:01:41.609Z,9.523
2023-03-26T09:02:40.656Z,9.528
2023-03-26T09:03:43.045Z,9.503
2023-03-26T09:04:40.689Z,9.511
2023-03-26T09:05:40.312Z,9.538
2023-03-26T09:06:41.568Z,9.560
2023-03-26T09:07:41.674Z,9.551
2023-03-26T09:08:53.849Z,9.543
2023-03-26T09:09:41.260Z,9.564
2023-03-26T09:10:41.283Z,9.579
2023-03-26T09:11:41.924Z,9.588
2023-03-26T09:12:42.683Z,9.601
2023-03-26T09:13:41.629Z,9.608
2023-03-26T09:14:42.141Z,9.631
2023-03-26T09:15:41.272Z,9.638
2023-03-26T09:16:44.140Z,9.636
2023-03-26T09:17:42.701Z,9.623
2023-03-26T09:18:39.336Z,9.628
2023-03-26T09:19:38.784Z,9.618
2023-03-26T09:20:43.216Z,9.616
2023-03-26T09:21:38.418Z,9.654
2023-03-26T09:22:38.328Z,9.656
2023-03-26T09:23:37.607Z,9.713
2023-03-26T09:24:38.025Z,9.710
2023-03-26T09:25:38.084Z,9.741
2023-03-26T09:26:46.507Z,9.771
2023-03-26T09:27:38.303Z,9.733
2023-03-26T09:28:45.686Z,9.743
2023-03-26T09:29:38.426Z,9.810
2023-03-26T09:30:47.150Z,9.789
2023-03-26T09:31:38.380Z,9.828
2023-03-26T09:32:45.974Z,9.869
2023-03-26T09:33:38.217Z,9.871
2023-03-26T09:34:51.464Z,9.891
2023-03-26T09:35:38.767Z,9.936
2023-03-26T09:36:39.310Z,9.896
2023-03-26T09:37:57.461Z,9.920
2023-03-26T09:38:37.825Z,9.970
2023-03-26T09:39:38.549Z,9.965
2023-03-26T09:40:38.278Z,9.989
2023-03-26T09:41:37.875Z,9.996
2023-03-26T09:42:38.230Z,9.994
2023-03-26T09:43:37.857Z,9.993
2023-03-26T09:44:52.253Z,10.03
2023-03-26T09:45:38.517Z,10.02
2023-03-26T09:46:38.788Z,10.00
2023-03-26T09:47:38.446Z,10.03
2023-03-26T09:48:38.108Z,10.04
2023-03-26T09:49:37.744Z,10.03
2023-03-26T09:50:38.257Z,10.06
2023-03-26T09:51:40.536Z,10.05
2023-03-26T09:52:37.961Z,10.03
2023-03-26T09:53:38.551Z,10.00
2023-03-26T09:54:37.753Z,10
2023-03-26T09:55:38.868Z,10.01
2023-03-26T09:56:39.731Z,9.994
2023-03-26T09:57:38.655Z,9.991
2023-03-26T09:58:43.427Z,9.981
2023-03-26T09:59:38.391Z,10.02
2023-03-26T10:00:58.805Z,9.994
2023-03-26T10:01:38.414Z,9.984
2023-03-26T10:03:00.737Z,9.943
2023-03-26T10:03:40.349Z,9.944
2023-03-26T10:04:38.334Z,9.953
2023-03-26T10:05:38.209Z,9.978
2023-03-26T10:06:37.619Z,9.981
2023-03-26T10:07:37.548Z,10.00
2023-03-26T10:08:38.138Z,10.00
2023-03-26T10:09:38.363Z,9.970
2023-03-26T10:10:37.975Z,9.996
2023-03-26T10:11:38.298Z,10.01
2023-03-26T10:12:38.427Z,10.02
2023-03-26T10:13:37.785Z,10.03
2023-03-26T10:14:38.659Z,10.07
2023-03-26T10:15:40.179Z,10.08
2023-03-26T10:16:52.026Z,10.07
2023-03-26T10:17:38.009Z,10.06
2023-03-26T10:18:52.523Z,10.06
2023-03-26T10:19:38.198Z,10.10
2023-03-26T10:20:37.898Z,10.12
2023-03-26T10:21:41.003Z,10.13
2023-03-26T10:22:38.117Z,10.11
2023-03-26T10:23:38.014Z,10.09
2023-03-26T10:24:37.967Z,10.14
2023-03-26T10:25:38.621Z,10.13
2023-03-26T10:26:38.897Z,10.13
2023-03-26T10:27:39.209Z,10.11
2023-03-26T10:28:37.868Z,10.17
2023-03-26T10:29:38.594Z,10.14
2023-03-26T10:30:38.922Z,10.14
2023-03-26T10:31:38.074Z,10.19
2023-03-26T10:32:38.222Z,10.19
2023-03-26T10:33:39.523Z,10.21
2023-03-26T10:34:44.062Z,10.22
2023-03-26T10:35:37.788Z,10.27
2023-03-26T10:36:38.765Z,10.26
2023-03-26T10:37:37.847Z,10.27
2023-03-26T10:38:38.437Z,10.29
2023-03-26T10:39:54.247Z,10.30
2023-03-26T10:40:37.644Z,10.30
2023-03-26T10:41:37.973Z,10.31
2023-03-26T10:42:37.993Z,10.29
2023-03-26T10:43:37.818Z,10.28
2023-03-26T10:44:38.650Z,10.33
2023-03-26T10:45:38.736Z,10.38
2023-03-26T10:46:38.219Z,10.35
2023-03-26T10:47:37.962Z,10.35
2023-03-26T10:48:37.882Z,10.36
2023-03-26T10:49:38.717Z,10.36
2023-03-26T10:50:38.770Z,10.36
2023-03-26T10:51:37.526Z,10.36
2023-03-26T10:52:37.904Z,10.36
2023-03-26T10:53:38.125Z,10.39
2023-03-26T10:54:38.027Z,10.41
2023-03-26T10:55:40.087Z,10.41
2023-03-26T10:56:38.879Z,10.44
2023-03-26T10:57:38.748Z,10.46
2023-03-26T10:58:48.319Z,10.48
2023-03-26T10:59:37.996Z,10.47
2023-03-26T11:00:38.645Z,10.46
2023-03-26T11:01:38.667Z,10.45
2023-03-26T11:02:44.956Z,10.45
2023-03-26T11:03:38.827Z,10.46
2023-03-26T11:04:38.824Z,10.42
2023-03-26T11:05:39.082Z,10.39
2023-03-26T11:06:37.357Z,10.42
2023-03-26T11:07:37.694Z,10.42
2023-03-26T11:08:47.354Z,10.43
2023-03-26T11:09:37.969Z,10.42
2023-03-26T11:10:38.262Z,10.47
2023-03-26T11:11:37.478Z,10.48
2023-03-26T11:12:42.455Z,10.45
2023-03-26T11:13:37.826Z,10.47
2023-03-26T11:14:49.003Z,10.59
2023-03-26T11:15:37.844Z,10.63
2023-03-26T11:16:39.117Z,10.65
2023-03-26T11:17:55.289Z,10.74
2023-03-26T11:18:38.448Z,10.77
2023-03-26T11:19:37.560Z,10.72
2023-03-26T11:20:38.048Z,10.67
2023-03-26T11:21:37.542Z,10.74
2023-03-26T11:22:38.071Z,10.79
2023-03-26T11:23:37.853Z,10.98
2023-03-26T11:24:38.589Z,10.91
2023-03-26T11:25:37.945Z,10.77
2023-03-26T11:26:39.348Z,10.70
2023-03-26T11:27:40.684Z,10.71
2023-03-26T11:28:37.679Z,10.62
2023-03-26T11:29:48.057Z,10.56
2023-03-26T11:30:37.613Z,10.51
2023-03-26T11:31:38.187Z,10.44
2023-03-26T11:32:38.000Z,10.45
2023-03-26T11:33:37.337Z,10.38
2023-03-26T11:34:37.835Z,10.35
2023-03-26T11:35:55.480Z,10.35
2023-03-26T11:36:37.983Z,10.34
2023-03-26T11:37:37.293Z,10.35
2023-03-26T11:38:37.552Z,10.36
2023-03-26T11:39:38.279Z,10.36
2023-03-26T11:40:38.029Z,10.31
2023-03-26T11:41:38.198Z,10.25
2023-03-26T11:42:38.019Z,10.20
2023-03-26T11:43:38.052Z,10.17
2023-03-26T11:44:37.151Z,10.14
2023-03-26T11:45:42.839Z,10.11
2023-03-26T11:46:38.057Z,10.14
2023-03-26T11:47:37.746Z,10.11
2023-03-26T11:48:38.027Z,10.04
2023-03-26T11:49:37.419Z,10.01
2023-03-26T11:50:37.191Z,10.00
2023-03-26T11:51:38.229Z,10.01
2023-03-26T11:52:37.658Z,10.01
2023-03-26T11:53:37.407Z,10.00
2023-03-26T11:54:38.035Z,10.02
2023-03-26T11:55:38.463Z,10.02
2023-03-26T11:56:37.604Z,9.991
2023-03-26T11:57:38.048Z,9.978
2023-03-26T11:58:37.614Z,9.973
2023-03-26T11:59:48.882Z,9.993
2023-03-26T12:00:39.002Z,9.978
2023-03-26T12:01:51.395Z,9.958
2023-03-26T12:02:38.049Z,10.03
2023-03-26T12:03:37.739Z,10.10
2023-03-26T12:04:37.551Z,10.07
2023-03-26T12:05:37.938Z,10.02
2023-03-26T12:06:38.549Z,10
2023-03-26T12:07:52.152Z,9.968
2023-03-26T12:08:37.127Z,9.935
2023-03-26T12:09:37.433Z,9.946
2023-03-26T12:10:37.413Z,9.923
2023-03-26T12:11:37.318Z,9.901
2023-03-26T12:12:37.628Z,9.913
2023-03-26T12:13:56.757Z,9.939
2023-03-26T12:14:37.892Z,9.958
2023-03-26T12:15:43.330Z,9.949
2023-03-26T12:16:37.794Z,9.944
2023-03-26T12:17:46.729Z,9.913
2023-03-26T12:18:37.341Z,9.881
2023-03-26T12:19:38.079Z,9.893
2023-03-26T12:20:37.338Z,9.904
2023-03-26T12:21:37.876Z,9.883
2023-03-26T12:22:38.134Z,9.878
2023-03-26T12:23:37.524Z,9.878
2023-03-26T12:24:38.032Z,9.918
2023-03-26T12:25:37.244Z,9.939
2023-03-26T12:26:38.572Z,9.951
2023-03-26T12:27:37.686Z,9.931
2023-03-26T12:28:37.385Z,9.906
2023-03-26T12:29:38.134Z,9.914
2023-03-26T12:30:37.613Z,9.946
2023-03-26T12:31:37.392Z,9.984
2023-03-26T12:32:53.350Z,9.973
2023-03-26T12:33:46.312Z,9.936
2023-03-26T12:34:37.795Z,9.938
2023-03-26T12:35:51.536Z,9.938
2023-03-26T12:36:37.626Z,9.963
2023-03-26T12:37:37.310Z,9.938
2023-03-26T12:38:37.087Z,9.911
2023-03-26T12:40:34.985Z,9.931
2023-03-26T12:40:50.550Z,9.958
2023-03-26T12:46:03.691Z,10.02
2023-03-26T12:46:03.724Z,10.02
2023-03-26T12:47:15.031Z,10.02
2023-03-26T12:47:46.232Z,10.02
2023-03-26T12:48:22.394Z,10.02
2023-03-26T12:48:46.479Z,10.02
2023-03-26T12:48:46.557Z,10.02
2023-03-26T12:49:12.709Z,10.04
2023-03-26T12:49:43.513Z,10.02
2023-03-26T12:50:50.044Z,10.00
2023-03-26T12:51:36.958Z,9.977
2023-03-26T12:52:37.748Z,9.975
2023-03-26T12:53:37.198Z,9.982
2023-03-26T12:54:37.086Z,9.964